createdAt,value
2018-06-14T00:01:58.177Z,12.77
2018-06-14T00:04:26.746Z,12.68
2018-06-14T00:06:55.283Z,12.75
2018-06-14T00:09:24.095Z,12.69
2018-06-14T00:11:52.689Z,12.66
2018-06-14T00:14:21.260Z,12.63
2018-06-14T00:16:49.897Z,12.60
2018-06-14T00:19:18.848Z,12.58
2018-06-14T00:21:48.911Z,12.56
2018-06-14T00:24:18.156Z,12.52
2018-06-14T00:26:46.639Z,12.49
2018-06-14T00:29:15.329Z,12.43
2018-06-14T00:31:43.841Z,12.42
2018-06-14T00:34:12.374Z,12.31
2018-06-14T00:36:40.866Z,12.28
2018-06-14T00:39:09.665Z,12.22
2018-06-14T00:41:38.202Z,12.17
2018-06-14T00:44:06.786Z,12.12
2018-06-14T00:46:35.762Z,12.11
2018-06-14T00:49:04.405Z,12.06
2018-06-14T00:51:32.986Z,12.04
2018-06-14T00:54:01.559Z,11.98
2018-06-14T00:56:36.777Z,11.95
2018-06-14T00:59:05.367Z,11.94
2018-06-14T01:01:34.036Z,11.89
2018-06-14T01:04:02.631Z,11.85
2018-06-14T01:06:31.186Z,11.81
2018-06-14T01:08:59.740Z,11.78
2018-06-14T01:11:28.350Z,11.76
2018-06-14T01:13:56.948Z,11.74
2018-06-14T01:16:25.574Z,11.73
2018-06-14T01:18:54.520Z,11.64
2018-06-14T01:21:23.156Z,11.59
2018-06-14T01:23:51.747Z,11.56
2018-06-14T01:26:20.377Z,11.52
2018-06-14T01:28:48.952Z,11.48
2018-06-14T01:31:17.595Z,11.49
2018-06-14T01:33:46.086Z,11.48
2018-06-14T01:36:14.661Z,11.41
2018-06-14T01:38:43.276Z,11.34
2018-06-14T01:41:11.893Z,11.30
2018-06-14T01:43:40.518Z,11.26
2018-06-14T01:46:09.115Z,11.22
2018-06-14T01:48:37.743Z,11.21
2018-06-14T01:51:06.328Z,11.25
2018-06-14T01:53:35.094Z,11.25
2018-06-14T01:56:03.725Z,11.23
2018-06-14T01:58:32.352Z,11.18
2018-06-14T02:01:01.580Z,11.12
2018-06-14T02:03:30.420Z,11.08
2018-06-14T02:05:58.937Z,11.08
2018-06-14T02:08:27.702Z,11.04
2018-06-14T02:10:56.356Z,11.00
2018-06-14T02:13:25.034Z,10.96
2018-06-14T02:15:53.760Z,10.92
2018-06-14T02:18:22.347Z,10.89
2018-06-14T02:20:51.194Z,10.83
2018-06-14T02:23:19.795Z,10.86
2018-06-14T02:25:48.361Z,10.84
2018-06-14T02:28:17.014Z,10.81
2018-06-14T02:30:45.519Z,10.80
2018-06-14T02:33:14.250Z,10.78
2018-06-14T02:35:42.923Z,10.78
2018-06-14T02:38:11.624Z,10.76
2018-06-14T02:40:40.142Z,10.70
2018-06-14T02:43:08.645Z,10.71
2018-06-14T02:45:37.146Z,10.68
2018-06-14T02:48:05.888Z,10.63
2018-06-14T02:50:34.458Z,10.65
2018-06-14T02:53:03.043Z,10.59
2018-06-14T02:55:31.641Z,10.55
2018-06-14T02:58:00.194Z,10.57
2018-06-14T03:00:28.712Z,10.50
2018-06-14T03:02:57.234Z,10.51
2018-06-14T03:05:25.803Z,10.50
2018-06-14T03:07:54.410Z,10.50
2018-06-14T03:10:22.929Z,10.47
2018-06-14T03:12:51.453Z,10.48
2018-06-14T03:15:19.989Z,10.45
2018-06-14T03:17:48.514Z,10.36
2018-06-14T03:20:21.559Z,10.26
2018-06-14T03:22:50.198Z,10.28
2018-06-14T03:25:18.763Z,10.24
2018-06-14T03:27:47.591Z,10.33
2018-06-14T03:30:16.154Z,10.32
2018-06-14T03:32:44.706Z,10.33
2018-06-14T03:35:13.278Z,10.32
2018-06-14T03:37:41.791Z,10.36
2018-06-14T03:40:10.367Z,10.37
2018-06-14T03:42:43.018Z,10.41
2018-06-14T03:45:16.707Z,10.43
2018-06-14T03:47:46.351Z,10.44
2018-06-14T03:50:15.206Z,10.50
2018-06-14T03:52:43.709Z,10.53
2018-06-14T03:55:12.281Z,10.55
2018-06-14T03:57:40.807Z,10.58
2018-06-14T04:00:09.416Z,10.64
2018-06-14T04:02:37.962Z,10.58
2018-06-14T04:05:06.644Z,10.76
2018-06-14T04:07:35.365Z,10.73
2018-06-14T04:10:04.208Z,10.70
2018-06-14T04:12:32.823Z,10.75
2018-06-14T04:15:01.373Z,10.80
2018-06-14T04:17:29.873Z,10.82
2018-06-14T04:19:58.407Z,10.84
2018-06-14T04:22:27.087Z,10.89
2018-06-14T04:24:55.629Z,10.92
2018-06-14T04:27:24.400Z,11.00
2018-06-14T04:29:52.961Z,11.02
2018-06-14T04:32:21.503Z,11.17
2018-06-14T04:34:50.068Z,11.25
2018-06-14T04:37:18.622Z,11.35
2018-06-14T04:39:47.245Z,11.36
2018-06-14T04:42:15.797Z,11.46
2018-06-14T04:44:44.948Z,11.51
2018-06-14T04:47:13.487Z,11.49
2018-06-14T04:49:42.152Z,11.59
2018-06-14T04:52:10.884Z,11.66
2018-06-14T04:54:39.380Z,11.62
2018-06-14T04:57:07.951Z,11.67
2018-06-14T04:59:36.578Z,11.75
2018-06-14T05:02:05.396Z,11.77
2018-06-14T05:04:34.103Z,11.83
2018-06-14T05:07:02.626Z,11.85
2018-06-14T05:09:31.210Z,11.86
2018-06-14T05:11:59.759Z,11.93
2018-06-14T05:14:28.340Z,12.01
2018-06-14T05:16:56.947Z,12.07
2018-06-14T05:19:25.562Z,12.13
2018-06-14T05:21:54.124Z,12.22
2018-06-14T05:24:23.169Z,12.25
2018-06-14T05:26:51.703Z,12.37
2018-06-14T05:29:20.268Z,12.39
2018-06-14T05:31:48.859Z,12.47
2018-06-14T05:34:17.378Z,12.46
2018-06-14T05:36:45.865Z,12.55
2018-06-14T05:39:14.492Z,12.69
2018-06-14T05:41:43.087Z,12.77
2018-06-14T05:44:11.558Z,12.90
2018-06-14T05:46:40.091Z,12.97
2018-06-14T05:49:08.670Z,12.98
2018-06-14T05:51:37.126Z,13.02
2018-06-14T05:54:05.802Z,13.01
2018-06-14T05:56:34.260Z,13.06
2018-06-14T05:59:03.166Z,13.25
2018-06-14T06:01:31.825Z,13.36
2018-06-14T06:04:00.358Z,13.37
2018-06-14T06:06:28.905Z,13.47
2018-06-14T06:08:57.391Z,13.53
2018-06-14T06:11:25.864Z,13.61
2018-06-14T06:13:54.434Z,13.66
2018-06-14T06:16:23.050Z,13.84
2018-06-14T06:18:51.590Z,13.98
2018-06-14T06:21:20.139Z,14.14
2018-06-14T06:23:48.714Z,14.31
2018-06-14T06:26:17.326Z,14.45
2018-06-14T06:28:45.936Z,14.66
2018-06-14T06:31:14.510Z,14.79
2018-06-14T06:33:43.075Z,14.88
2018-06-14T06:36:11.684Z,15.06
2018-06-14T06:38:40.280Z,15.19
2018-06-14T06:41:08.841Z,15.13
2018-06-14T06:43:37.374Z,15.42
2018-06-14T06:46:05.936Z,15.46
2018-06-14T06:48:34.568Z,15.41
2018-06-14T06:51:03.045Z,15.61
2018-06-14T06:53:31.576Z,15.68
2018-06-14T06:56:00.191Z,16.04
2018-06-14T06:58:28.882Z,16.22
2018-06-14T07:00:57.460Z,16.36
2018-06-14T07:03:25.991Z,16.71
2018-06-14T07:05:54.594Z,16.78
2018-06-14T07:08:23.065Z,16.81
2018-06-14T07:10:51.643Z,16.94
2018-06-14T07:13:20.125Z,17.08
2018-06-14T07:15:48.767Z,17.37
2018-06-14T07:18:17.589Z,17.27
2018-06-14T07:20:46.080Z,17.79
2018-06-14T07:23:14.704Z,17.70
2018-06-14T07:25:43.629Z,17.86
2018-06-14T07:28:12.246Z,17.86
2018-06-14T07:30:40.843Z,18.15
2018-06-14T07:33:09.524Z,18.71
2018-06-14T07:35:38.159Z,18.79
2018-06-14T07:38:06.746Z,19.25
2018-06-14T07:40:35.330Z,19.08
2018-06-14T07:43:03.833Z,19.48
2018-06-14T07:45:32.347Z,19.03
2018-06-14T07:48:00.921Z,18.56
2018-06-14T07:50:29.506Z,18.82
2018-06-14T07:52:58.190Z,19.22
2018-06-14T07:55:26.753Z,19.54
2018-06-14T07:57:55.357Z,19.42
2018-06-14T08:00:23.947Z,19.47
2018-06-14T08:02:52.432Z,19.56
2018-06-14T08:05:21.039Z,19.70
2018-06-14T08:07:49.691Z,19.69
2018-06-14T08:10:18.437Z,19.77
2018-06-14T08:12:47.044Z,19.71
2018-06-14T08:15:15.607Z,19.32
2018-06-14T08:17:44.148Z,18.89
2018-06-14T08:20:12.818Z,19.23
2018-06-14T08:22:41.625Z,19.31
2018-06-14T08:25:10.196Z,19.48
2018-06-14T08:27:38.803Z,19.18
2018-06-14T08:30:07.422Z,19.08
2018-06-14T08:32:36.123Z,18.41
2018-06-14T08:35:04.827Z,19.30
2018-06-14T08:37:33.355Z,19.55
2018-06-14T08:40:02.027Z,19.89
2018-06-14T08:42:30.686Z,19.85
2018-06-14T08:44:59.270Z,19.54
2018-06-14T08:47:27.782Z,19.63
2018-06-14T08:49:56.447Z,19.56
2018-06-14T08:52:25.087Z,19.70
2018-06-14T08:54:53.616Z,19.58
2018-06-14T08:57:22.210Z,19.69
2018-06-14T08:59:50.808Z,19.48
2018-06-14T09:02:19.390Z,19.26
2018-06-14T09:04:48.208Z,19.18
2018-06-14T09:07:16.782Z,19.18
2018-06-14T09:09:45.779Z,19.25
2018-06-14T09:12:14.577Z,19.36
2018-06-14T09:14:43.188Z,19.28
2018-06-14T09:17:11.689Z,19.09
2018-06-14T09:19:40.262Z,18.71
2018-06-14T09:22:08.848Z,18.69
2018-06-14T09:24:37.478Z,18.86
2018-06-14T09:27:06.041Z,18.84
2018-06-14T09:29:34.647Z,19.05
2018-06-14T09:32:03.384Z,19.18
2018-06-14T09:34:31.989Z,19.43
2018-06-14T09:37:00.608Z,19.47
2018-06-14T09:39:29.208Z,19.51
2018-06-14T09:41:57.726Z,19.19
2018-06-14T09:44:26.292Z,19.15
2018-06-14T09:46:54.974Z,19.20
2018-06-14T09:49:23.527Z,19.08
2018-06-14T09:51:52.150Z,19.19
2018-06-14T09:54:20.685Z,19.31
2018-06-14T09:56:49.311Z,19.35
2018-06-14T09:59:17.860Z,19.52
2018-06-14T10:01:46.544Z,19.40
2018-06-14T10:04:15.322Z,19.76
2018-06-14T10:06:43.852Z,19.84
2018-06-14T10:09:13.190Z,19.91
2018-06-14T10:11:41.798Z,20.15
2018-06-14T10:14:10.366Z,20.27
2018-06-14T10:16:38.999Z,20.19
2018-06-14T10:19:07.529Z,20.07
2018-06-14T10:21:36.187Z,20.04
2018-06-14T10:24:04.741Z,20.17
2018-06-14T10:26:33.630Z,19.76
2018-06-14T10:29:02.247Z,20.18
2018-06-14T10:31:30.886Z,20.55
2018-06-14T10:33:59.450Z,20.82
2018-06-14T10:36:28.135Z,20.74
2018-06-14T10:38:56.798Z,20.63
2018-06-14T10:41:25.339Z,20.58
2018-06-14T10:43:54.019Z,20.64
2018-06-14T10:46:22.633Z,20.77
2018-06-14T10:48:51.105Z,21.02
2018-06-14T10:51:19.617Z,20.45
2018-06-14T10:53:48.134Z,20.15
2018-06-14T10:56:16.669Z,20.67
2018-06-14T10:58:45.216Z,20.89
2018-06-14T11:01:13.835Z,21.10
2018-06-14T11:03:42.369Z,21.46
2018-06-14T11:06:10.916Z,21.47
2018-06-14T11:08:39.429Z,21.36
2018-06-14T11:11:08.001Z,20.47
2018-06-14T11:13:36.544Z,20.82
2018-06-14T11:16:05.198Z,20.89
2018-06-14T11:18:33.767Z,21.28
2018-06-14T11:21:02.309Z,21.47
2018-06-14T11:23:30.884Z,21.83
2018-06-14T11:25:59.467Z,21.70
2018-06-14T11:28:28.050Z,21.56
2018-06-14T11:30:56.722Z,21.45
2018-06-14T11:33:25.289Z,21.54
2018-06-14T11:35:53.829Z,21.27
2018-06-14T11:38:22.721Z,21.20
2018-06-14T11:40:51.303Z,21.05
2018-06-14T11:43:19.842Z,21.30
2018-06-14T11:45:48.515Z,21.30
2018-06-14T11:48:17.122Z,21.41
2018-06-14T11:50:45.551Z,21.61
2018-06-14T11:53:14.019Z,21.59
2018-06-14T11:55:42.540Z,21.55
2018-06-14T11:58:11.079Z,21.58
2018-06-14T12:00:39.618Z,21.48
2018-06-14T12:03:08.274Z,21.58
2018-06-14T12:05:36.730Z,21.38
2018-06-14T12:08:05.281Z,21.29
2018-06-14T12:10:33.839Z,21.40
2018-06-14T12:13:02.442Z,21.38
2018-06-14T12:15:31.043Z,21.54
2018-06-14T12:17:59.575Z,21.73
2018-06-14T12:20:28.119Z,21.22
2018-06-14T12:22:56.610Z,21.28
2018-06-14T12:25:25.136Z,21.48
2018-06-14T12:27:53.708Z,21.45
2018-06-14T12:30:22.508Z,21.32
2018-06-14T12:32:51.052Z,21.62
2018-06-14T12:35:19.627Z,21.51
2018-06-14T12:37:48.288Z,21.76
2018-06-14T12:40:16.757Z,21.72
2018-06-14T12:42:45.330Z,21.97
2018-06-14T12:45:13.815Z,22.05
2018-06-14T12:47:42.296Z,21.98
2018-06-14T12:50:10.814Z,22.13
2018-06-14T12:52:39.301Z,21.71
2018-06-14T12:55:07.929Z,21.84
2018-06-14T12:57:36.449Z,22.06
2018-06-14T13:00:05.109Z,21.96
2018-06-14T13:02:33.697Z,22.13
2018-06-14T13:05:02.282Z,22.05
2018-06-14T13:07:30.818Z,22.27
2018-06-14T13:09:59.262Z,22.08
2018-06-14T13:12:28.075Z,21.91
2018-06-14T13:14:56.645Z,21.77
2018-06-14T13:17:25.160Z,22.09
2018-06-14T13:19:53.667Z,22.23
2018-06-14T13:22:22.193Z,22.11
2018-06-14T13:24:50.944Z,22.27
2018-06-14T13:27:19.711Z,22.43
2018-06-14T13:29:48.312Z,22.34
2018-06-14T13:32:16.881Z,22.34
2018-06-14T13:34:45.405Z,22.52
2018-06-14T13:37:13.967Z,22.63
2018-06-14T13:39:42.593Z,22.72
2018-06-14T13:42:11.255Z,22.76
2018-06-14T13:44:39.856Z,22.71
2018-06-14T13:47:08.338Z,22.73
2018-06-14T13:49:36.985Z,22.86
2018-06-14T13:52:05.643Z,22.87
2018-06-14T13:54:34.159Z,22.94
2018-06-14T13:57:02.760Z,22.96
2018-06-14T13:59:31.336Z,23.01
2018-06-14T14:01:59.848Z,23.07
2018-06-14T14:04:28.386Z,23.15
2018-06-14T14:07:01.014Z,23.17
2018-06-14T14:09:29.577Z,22.97
2018-06-14T14:11:58.078Z,23.14
2018-06-14T14:14:26.538Z,23.22
2018-06-14T14:16:55.119Z,23.35
2018-06-14T14:19:23.926Z,23.42
2018-06-14T14:21:52.598Z,23.37
2018-06-14T14:24:21.813Z,23.31
2018-06-14T14:26:50.436Z,23.21
2018-06-14T14:29:19.108Z,23.27
2018-06-14T14:31:47.997Z,23.30
2018-06-14T14:34:16.644Z,23.40
2018-06-14T14:36:45.182Z,23.33
2018-06-14T14:39:14.038Z,23.34
2018-06-14T14:41:43.287Z,23.39
2018-06-14T14:44:11.965Z,23.40
2018-06-14T14:46:40.719Z,23.18
2018-06-14T14:49:09.274Z,23.29
2018-06-14T14:51:37.855Z,23.22
2018-06-14T14:54:06.819Z,23.30
2018-06-14T14:56:37.781Z,23.31
2018-06-14T14:59:06.374Z,23.34
2018-06-14T15:01:35.261Z,23.47
2018-06-14T15:04:04.120Z,23.47
2018-06-14T15:06:33.202Z,23.37
2018-06-14T15:09:02.063Z,23.42
2018-06-14T15:11:30.577Z,23.17
2018-06-14T15:13:59.608Z,23.26
2018-06-14T15:16:28.791Z,23.28
2018-06-14T15:18:57.305Z,23.15
2018-06-14T15:21:25.831Z,23.28
2018-06-14T15:23:54.496Z,23.25
2018-06-14T15:26:23.723Z,23.28
2018-06-14T15:28:53.408Z,23.26
2018-06-14T15:31:22.117Z,23.05
2018-06-14T15:33:51.071Z,23.16
2018-06-14T15:36:20.192Z,23.15
2018-06-14T15:38:49.229Z,23.17
2018-06-14T15:41:17.740Z,23.20
2018-06-14T15:43:46.323Z,23.13
2018-06-14T15:46:15.095Z,23.06
2018-06-14T15:48:43.679Z,23.14
2018-06-14T15:51:12.685Z,23.15
2018-06-14T15:53:41.190Z,23.11
2018-06-14T15:56:26.184Z,23.03
2018-06-14T15:58:54.868Z,23.06
2018-06-14T16:01:23.830Z,23.05
2018-06-14T16:03:52.477Z,23.04
2018-06-14T16:06:21.130Z,22.99
2018-06-14T16:08:50.000Z,22.98
2018-06-14T16:11:18.857Z,23.00
2018-06-14T16:13:47.661Z,23.06
2018-06-14T16:16:16.404Z,23.08
2018-06-14T16:18:45.233Z,23.15
2018-06-14T16:21:13.865Z,23.08
2018-06-14T16:23:42.609Z,23.08
2018-06-14T16:26:11.605Z,23.01
2018-06-14T16:28:40.253Z,23.06
2018-06-14T16:31:08.976Z,23.02
2018-06-14T16:33:37.961Z,22.95
2018-06-14T16:36:06.628Z,23.02
2018-06-14T16:38:35.742Z,23.00
2018-06-14T16:41:05.046Z,23.00
2018-06-14T16:43:34.486Z,23.02
2018-06-14T16:46:03.439Z,23.01
2018-06-14T16:48:32.084Z,22.99
2018-06-14T16:51:00.993Z,22.80
2018-06-14T16:53:29.784Z,22.64
2018-06-14T16:55:58.361Z,22.63
2018-06-14T16:58:27.258Z,22.62
2018-06-14T17:00:55.993Z,22.48
2018-06-14T17:03:25.573Z,22.47
2018-06-14T17:05:54.240Z,22.35
2018-06-14T17:08:22.839Z,22.29
2018-06-14T17:10:51.504Z,22.27
2018-06-14T17:13:20.236Z,22.23
2018-06-14T17:15:49.257Z,22.14
2018-06-14T17:18:17.738Z,22.16
2018-06-14T17:20:46.317Z,22.05
2018-06-14T17:23:14.995Z,22.04
2018-06-14T17:25:43.622Z,21.99
2018-06-14T17:28:12.197Z,21.88
2018-06-14T17:30:41.086Z,21.88
2018-06-14T17:33:09.637Z,21.82
2018-06-14T17:35:38.390Z,21.80
2018-06-14T17:38:07.097Z,21.67
2018-06-14T17:40:35.630Z,21.69
2018-06-14T17:43:04.635Z,21.63
2018-06-14T17:45:33.229Z,21.64
2018-06-14T17:48:01.867Z,21.62
2018-06-14T17:50:30.400Z,21.58
2018-06-14T17:52:58.957Z,21.61
2018-06-14T17:55:27.557Z,21.64
2018-06-14T17:57:56.646Z,21.61
2018-06-14T18:00:25.311Z,21.57
2018-06-14T18:02:54.104Z,21.58
2018-06-14T18:05:22.816Z,21.55
2018-06-14T18:07:51.684Z,21.56
2018-06-14T18:10:20.466Z,21.48
2018-06-14T18:12:49.114Z,21.41
2018-06-14T18:15:17.663Z,21.42
2018-06-14T18:17:46.276Z,21.38
2018-06-14T18:20:15.133Z,21.36
2018-06-14T18:22:43.862Z,21.36
2018-06-14T18:25:12.396Z,21.36
2018-06-14T18:27:41.062Z,21.36
2018-06-14T18:30:10.209Z,21.33
2018-06-14T18:32:38.805Z,21.31
2018-06-14T18:35:07.291Z,21.28
2018-06-14T18:37:35.950Z,21.23
2018-06-14T18:40:04.625Z,21.24
2018-06-14T18:42:33.338Z,21.27
2018-06-14T18:45:01.869Z,21.22
2018-06-14T18:47:30.412Z,21.19
2018-06-14T18:49:59.096Z,21.18
2018-06-14T18:52:27.610Z,21.15
2018-06-14T18:54:56.377Z,21.04
2018-06-14T18:57:25.212Z,21.00
2018-06-14T18:59:54.153Z,20.99
2018-06-14T19:02:22.672Z,20.94
2018-06-14T19:04:51.413Z,20.89
2018-06-14T19:07:20.053Z,20.87
2018-06-14T19:09:49.005Z,20.83
2018-06-14T19:12:18.196Z,20.80
2018-06-14T19:14:46.931Z,20.80
2018-06-14T19:17:15.544Z,20.75
2018-06-14T19:19:44.234Z,20.66
2018-06-14T19:22:12.928Z,20.37
2018-06-14T19:24:41.475Z,20.22
2018-06-14T19:27:10.020Z,19.88
2018-06-14T19:29:38.948Z,19.76
2018-06-14T19:32:07.970Z,19.39
2018-06-14T19:34:37.268Z,18.94
2018-06-14T19:37:06.659Z,18.72
2018-06-14T19:39:35.576Z,18.61
2018-06-14T19:42:04.531Z,18.61
2018-06-14T19:44:33.014Z,18.51
2018-06-14T19:47:02.414Z,18.33
2018-06-14T19:49:31.314Z,18.24
2018-06-14T19:52:00.123Z,18.28
2018-06-14T19:54:28.647Z,18.23
2018-06-14T19:56:57.223Z,17.94
2018-06-14T19:59:26.514Z,17.83
2018-06-14T20:01:55.484Z,17.28
2018-06-14T20:04:24.679Z,17.52
2018-06-14T20:06:53.372Z,17.53
2018-06-14T20:09:22.333Z,17.53
2018-06-14T20:11:51.351Z,17.46
2018-06-14T20:14:19.906Z,17.40
2018-06-14T20:16:48.740Z,17.31
2018-06-14T20:19:20.146Z,17.19
2018-06-14T20:21:49.199Z,17.21
2018-06-14T20:24:18.105Z,17.06
2018-06-14T20:26:46.819Z,16.98
2018-06-14T20:29:15.598Z,17.06
2018-06-14T20:31:44.711Z,17.06
2018-06-14T20:34:13.780Z,17.09
2018-06-14T20:36:42.585Z,17.10
2018-06-14T20:39:12.896Z,17.20
2018-06-14T20:41:41.653Z,17.02
2018-06-14T20:44:11.146Z,16.72
2018-06-14T20:46:39.703Z,16.83
2018-06-14T20:49:08.433Z,16.88
2018-06-14T20:51:36.975Z,16.84
2018-06-14T20:54:05.635Z,16.89
2018-06-14T20:56:34.889Z,16.84
2018-06-14T20:59:04.287Z,16.90
2018-06-14T21:01:33.167Z,16.78
2018-06-14T21:04:02.485Z,16.91
2018-06-14T21:06:32.718Z,16.90
2018-06-14T21:09:08.925Z,16.90
2018-06-14T21:11:44.179Z,16.82
2018-06-14T21:14:12.676Z,16.78
2018-06-14T21:16:42.996Z,16.82
2018-06-14T21:19:15.751Z,16.76
2018-06-14T21:21:44.596Z,16.70
2018-06-14T21:24:13.141Z,16.78
2018-06-14T21:26:41.606Z,16.80
2018-06-14T21:29:10.219Z,16.78
2018-06-14T21:31:38.699Z,16.62
2018-06-14T21:34:08.055Z,16.57
2018-06-14T21:36:36.909Z,16.53
2018-06-14T21:39:09.048Z,16.65
2018-06-14T21:41:38.047Z,16.60
2018-06-14T21:44:07.610Z,16.57
2018-06-14T21:46:36.398Z,16.61
2018-06-14T21:49:06.236Z,16.59
2018-06-14T21:51:34.708Z,16.53
2018-06-14T21:54:03.285Z,16.52
2018-06-14T21:56:31.800Z,16.50
2018-06-14T21:59:00.338Z,16.44
2018-06-14T22:01:28.849Z,16.42
2018-06-14T22:03:59.591Z,16.44
2018-06-14T22:06:29.518Z,16.42
2018-06-14T22:08:58.244Z,16.44
2018-06-14T22:11:26.989Z,16.40
2018-06-14T22:13:55.629Z,16.29
2018-06-14T22:16:24.917Z,16.35
2018-06-14T22:18:53.724Z,16.31
2018-06-14T22:21:22.577Z,16.30
2018-06-14T22:23:51.584Z,16.28
2018-06-14T22:26:20.236Z,16.28
2018-06-14T22:28:49.079Z,16.28
2018-06-14T22:31:17.713Z,16.27
2018-06-14T22:33:57.410Z,16.24
2018-06-14T22:36:26.196Z,16.23
2018-06-14T22:38:55.001Z,16.25
2018-06-14T22:41:23.791Z,16.25
2018-06-14T22:43:52.619Z,16.25
2018-06-14T22:46:21.504Z,16.27
2018-06-14T22:48:50.313Z,16.30
2018-06-14T22:51:20.563Z,16.28
2018-06-14T22:53:49.171Z,16.34
2018-06-14T22:56:17.831Z,16.34
2018-06-14T22:58:47.166Z,16.38
2018-06-14T23:01:35.172Z,16.36
2018-06-14T23:04:04.389Z,16.33
2018-06-14T23:06:33.203Z,16.36
2018-06-14T23:09:21.458Z,16.37
2018-06-14T23:11:50.132Z,16.40
2018-06-14T23:14:18.932Z,16.32
2018-06-14T23:16:47.440Z,16.33
2018-06-14T23:19:16.080Z,16.34
2018-06-14T23:21:44.855Z,16.32
2018-06-14T23:24:13.452Z,16.35
2018-06-14T23:26:42.341Z,16.35
2018-06-14T23:29:11.023Z,16.38
2018-06-14T23:31:39.838Z,16.39
2018-06-14T23:34:08.599Z,16.39
2018-06-14T23:36:37.464Z,16.32
2018-06-14T23:39:07.010Z,16.34
2018-06-14T23:41:35.758Z,16.34
2018-06-14T23:44:04.316Z,16.32
2018-06-14T23:46:32.877Z,16.34
2018-06-14T23:49:01.454Z,16.34
2018-06-14T23:51:29.938Z,16.34
2018-06-14T23:53:58.464Z,16.31
2018-06-14T23:56:27.081Z,16.31
2018-06-14T23:58:55.577Z,16.33
